Time;durP1;ratioP1;P1;durP2;ratioP2;P2;SDS_P1;SDS_P2;PMS_P1;PMS_P2;Temp;Humidity;BMP_temperature;BMP_pressure;BME280_temperature;BME280_humidity;BME280_pressure;Samples;Min_cycle;Max_cycle;Signal;HPM_P1;HPM_P2
2022/02/28 00:01:59;;;;;;;7.47;3.07;;;;;;;2.07;45.79;101106.91;5057302;28;20044;-74
2022/02/28 00:04:25;;;;;;;6.03;3.37;;;;;;;2.01;45.83;101100.19;5057119;28;20540;-70
2022/02/28 00:06:52;;;;;;;6.23;2.90;;;;;;;2.19;45.89;101099.34;5057329;28;20044;-70
2022/02/28 00:09:19;;;;;;;6.07;3.50;;;;;;;1.95;46.19;101071.66;5073611;28;20522;-71
2022/02/28 00:11:47;;;;;;;14.57;3.43;;;;;;;2.08;45.87;101101.59;5073936;28;20042;-70
2022/02/28 00:14:12;;;;;;;5.77;3.10;;;;;;;2.01;45.93;101110.69;5056627;28;20144;-70
2022/02/28 00:16:39;;;;;;;6.63;3.27;;;;;;;2.01;46.15;101104.56;5022808;28;20567;-69
2022/02/28 00:19:05;;;;;;;7.53;3.07;;;;;;;2.08;46.13;101109.47;5073915;28;20040;-69
2022/02/28 00:21:31;;;;;;;4.10;2.83;;;;;;;1.99;46.25;101111.66;5091382;28;20040;-69
2022/02/28 00:24:00;;;;;;;5.53;2.93;;;;;;;2.01;46.35;101110.69;5057437;28;20040;-69
2022/02/28 00:26:26;;;;;;;7.07;3.50;;;;;;;2.02;46.05;101095.78;5091255;28;20179;-69
2022/02/28 00:28:52;;;;;;;14.00;3.10;;;;;;;2.03;46.06;101103.56;5057406;28;20179;-70
2022/02/28 00:31:18;;;;;;;5.47;3.10;;;;;;;2.02;46.27;101096.66;5074055;28;20540;-70
2022/02/28 00:33:44;;;;;;;6.50;2.97;;;;;;;1.97;46.39;101082.91;5074189;28;20046;-70
2022/02/28 00:36:10;;;;;;;8.17;3.23;;;;;;;2.00;46.08;101095.03;5058356;28;20134;-70
2022/02/28 00:38:37;;;;;;;4.83;3.33;;;;;;;2.09;45.97;101107.72;5074435;28;20147;-70
2022/02/28 00:41:03;;;;;;;5.90;3.20;;;;;;;2.03;46.16;101108.81;5074229;28;20453;-70
2022/02/28 00:43:28;;;;;;;4.77;3.10;;;;;;;1.93;46.13;101102.31;5040253;28;20040;-70
2022/02/28 00:45:54;;;;;;;6.73;3.43;;;;;;;1.81;46.33;101086.28;5040404;28;20981;-70
2022/02/28 00:48:20;;;;;;;6.70;3.30;;;;;;;1.92;46.36;101100.59;5055558;28;20043;-70
2022/02/28 00:50:46;;;;;;;8.23;3.03;;;;;;;1.91;46.36;101098.88;5054786;28;20110;-71
2022/02/28 00:53:12;;;;;;;5.27;3.13;;;;;;;1.87;46.75;101106.97;5054504;28;20059;-73
2022/02/28 00:55:38;;;;;;;5.67;3.20;;;;;;;1.86;46.51;101105.25;5071208;28;20047;-71
2022/02/28 00:58:04;;;;;;;12.03;3.17;;;;;;;1.89;46.74;101089.41;5038215;28;20044;-71
2022/02/28 01:00:30;;;;;;;6.43;3.20;;;;;;;1.89;46.56;101110.38;5071334;28;20048;-71
2022/02/28 01:02:56;;;;;;;5.87;3.37;;;;;;;1.94;46.64;101104.00;5037573;28;20499;-70
2022/02/28 01:05:23;;;;;;;4.70;3.20;;;;;;;1.93;46.61;101106.69;5038839;28;20120;-69
2022/02/28 01:07:50;;;;;;;5.77;3.50;;;;;;;1.93;46.38;101098.81;5072958;28;20102;-70
2022/02/28 01:10:18;;;;;;;4.70;3.00;;;;;;;2.05;46.70;101093.88;5073581;28;20070;-71
2022/02/28 01:12:44;;;;;;;8.30;3.17;;;;;;;1.91;46.61;101104.13;5023631;28;20139;-71
2022/02/28 01:15:12;;;;;;;5.87;3.33;;;;;;;1.92;46.43;101077.03;5055468;28;20048;-71
2022/02/28 01:17:38;;;;;;;6.20;3.60;;;;;;;1.88;46.87;101101.66;5072803;28;20056;-71
2022/02/28 01:20:05;;;;;;;6.13;3.10;;;;;;;2.00;46.75;101087.16;5034345;28;20044;-71
2022/02/28 01:22:31;;;;;;;5.53;3.00;;;;;;;1.84;46.46;101102.72;5071086;28;20518;-71
2022/02/28 01:24:57;;;;;;;5.60;3.03;;;;;;;1.70;46.43;101069.28;5038194;28;20043;-70
2022/02/28 01:27:23;;;;;;;7.20;3.07;;;;;;;1.88;46.58;101091.16;5038628;28;20067;-71
2022/02/28 01:29:49;;;;;;;9.43;3.17;;;;;;;1.85;46.68;101095.69;5038662;28;20089;-71
2022/02/28 01:32:16;;;;;;;8.57;3.73;;;;;;;1.97;46.49;101100.41;5037944;28;20043;-73
2022/02/28 01:34:42;;;;;;;11.33;3.10;;;;;;;1.89;46.73;101097.28;5069921;28;20043;-71
2022/02/28 01:37:08;;;;;;;6.00;3.20;;;;;;;1.88;46.75;101093.78;5037027;28;20040;-76
2022/02/28 01:39:34;;;;;;;5.53;2.90;;;;;;;1.85;46.51;101099.16;5053809;28;20565;-71
2022/02/28 01:42:00;;;;;;;3.40;2.27;;;;;;;1.84;46.84;101094.00;5036585;28;20588;-72
2022/02/28 01:44:27;;;;;;;6.17;2.93;;;;;;;1.89;46.65;101095.50;5035291;28;20047;-71
2022/02/28 01:46:53;;;;;;;6.50;3.33;;;;;;;1.78;46.53;101082.84;5035536;28;20116;-72
2022/02/28 01:49:19;;;;;;;5.33;2.87;;;;;;;1.77;46.77;101089.97;5035335;28;20454;-72
2022/02/28 01:51:45;;;;;;;6.20;3.23;;;;;;;1.80;46.79;101095.88;5052572;28;20116;-71
2022/02/28 01:54:11;;;;;;;4.37;2.77;;;;;;;1.81;46.93;101089.75;5053056;28;20787;-71
2022/02/28 01:56:37;;;;;;;4.53;3.20;;;;;;;1.77;46.46;101086.41;5037322;28;20043;-71
2022/02/28 01:59:04;;;;;;;10.00;3.10;;;;;;;2.01;46.53;101101.97;5038912;28;20040;-71
2022/02/28 02:01:31;;;;;;;6.67;3.30;;;;;;;1.85;46.60;101087.81;5087860;28;20450;-72
2022/02/28 02:03:56;;;;;;;6.33;3.40;;;;;;;1.80;46.59;101095.06;5036895;28;20040;-71
2022/02/28 02:06:23;;;;;;;5.83;3.77;;;;;;;1.84;46.58;101087.00;5036952;28;20039;-71
2022/02/28 02:08:49;;;;;;;5.77;3.67;;;;;;;1.75;46.54;101088.22;5036994;28;20503;-71
2022/02/28 02:11:18;;;;;;;7.50;3.47;;;;;;;1.93;46.86;101091.81;5037542;28;20097;-71
2022/02/28 02:13:44;;;;;;;6.23;3.50;;;;;;;1.70;46.72;101086.75;5070676;28;20048;-70
2022/02/28 02:16:10;;;;;;;7.23;3.37;;;;;;;1.77;46.68;101076.88;5053868;28;20519;-75
2022/02/28 02:18:36;;;;;;;12.30;3.50;;;;;;;1.63;46.92;101088.78;5053694;28;20163;-71
2022/02/28 02:21:02;;;;;;;7.70;3.80;;;;;;;1.63;47.06;101087.91;5037278;28;20055;-71
2022/02/28 02:23:29;;;;;;;8.47;3.90;;;;;;;1.62;47.25;101088.84;5037435;28;20050;-72
2022/02/28 02:25:57;;;;;;;9.17;3.33;;;;;;;1.63;47.05;101088.78;5036919;28;20425;-72
2022/02/28 02:28:27;;;;;;;7.37;3.80;;;;;;;1.57;47.27;101090.81;5038224;28;20133;-73
2022/02/28 02:30:55;;;;;;;9.40;3.83;;;;;;;1.77;47.36;101090.78;5054147;28;20051;-73
2022/02/28 02:33:23;;;;;;;11.53;3.70;;;;;;;1.63;47.43;101085.31;5053582;28;20441;-70
2022/02/28 02:35:54;;;;;;;7.83;3.87;;;;;;;1.73;47.31;101082.22;5036729;28;20053;-71
2022/02/28 02:38:20;;;;;;;5.60;3.53;;;;;;;1.70;47.34;101097.22;5052859;28;20055;-70
2022/02/28 02:40:47;;;;;;;8.57;3.77;;;;;;;1.61;47.46;101089.78;5035722;28;20051;-70
2022/02/28 02:43:13;;;;;;;4.57;3.20;;;;;;;1.65;47.08;101091.34;5034895;28;20048;-70
2022/02/28 02:45:39;;;;;;;6.93;3.60;;;;;;;1.55;47.15;101074.34;5037326;28;20579;-71
2022/02/28 02:48:13;;;;;;;5.40;3.67;;;;;;;1.93;47.09;101081.34;5055913;28;20508;-73
2022/02/28 02:50:38;;;;;;;6.00;3.63;;;;;;;1.58;47.07;101087.28;5039576;28;20044;-70
2022/02/28 02:53:04;;;;;;;9.53;3.97;;;;;;;1.54;47.13;101076.09;5072517;28;20048;-70
2022/02/28 02:55:31;;;;;;;7.07;3.80;;;;;;;1.50;47.72;101077.16;5055630;28;20066;-70
2022/02/28 02:57:58;;;;;;;8.37;3.67;;;;;;;1.56;47.41;101079.50;5040102;28;20101;-71
2022/02/28 03:00:24;;;;;;;10.63;3.97;;;;;;;1.61;47.29;101084.53;5040284;28;20071;-70
2022/02/28 03:03:00;;;;;;;13.60;4.00;;;;;;;1.65;47.38;101068.63;5040902;28;20048;-70
2022/02/28 03:05:27;;;;;;;7.63;3.60;;;;;;;1.49;47.18;101066.75;5056317;28;20131;-71
2022/02/28 03:07:53;;;;;;;6.67;3.70;;;;;;;1.58;47.24;101077.66;5056113;28;20197;-71
2022/02/28 03:10:19;;;;;;;6.03;4.00;;;;;;;1.47;47.16;101061.56;5040077;28;20039;-74
2022/02/28 03:12:45;;;;;;;11.87;3.87;;;;;;;1.60;47.50;101073.19;5054708;28;20050;-71
2022/02/28 03:15:11;;;;;;;6.93;3.87;;;;;;;1.49;47.52;101074.59;5023939;28;20047;-71
2022/02/28 03:17:38;;;;;;;8.43;3.63;;;;;;;1.58;47.44;101084.66;5039949;28;20044;-70
2022/02/28 03:20:04;;;;;;;4.70;3.53;;;;;;;1.54;47.35;101089.19;5040167;28;20043;-71
2022/02/28 03:22:30;;;;;;;11.40;4.13;;;;;;;1.51;47.20;101085.84;5040022;28;20079;-71
2022/02/28 03:24:56;;;;;;;6.87;3.50;;;;;;;1.48;47.40;101088.59;5024104;28;20090;-71
2022/02/28 03:27:23;;;;;;;8.47;4.20;;;;;;;1.51;47.23;101102.41;5040473;28;20031;-71
2022/02/28 03:29:50;;;;;;;7.07;3.97;;;;;;;1.52;47.11;101100.66;5040707;28;20519;-70
2022/02/28 03:32:16;;;;;;;11.07;4.10;;;;;;;1.50;47.24;101098.09;5023474;28;20093;-72
2022/02/28 03:34:43;;;;;;;8.53;3.80;;;;;;;1.48;47.02;101086.81;5055883;28;20039;-72
2022/02/28 03:37:09;;;;;;;10.23;4.23;;;;;;;1.59;46.98;101100.31;5022981;28;20040;-71
2022/02/28 03:39:35;;;;;;;13.43;4.40;;;;;;;1.62;46.85;101086.22;5023170;28;20066;-72
2022/02/28 03:42:01;;;;;;;6.70;4.20;;;;;;;1.52;47.23;101079.69;5039292;28;20040;-72
2022/02/28 03:44:29;;;;;;;7.43;3.83;;;;;;;1.60;46.81;101109.00;5056108;28;20036;-72
2022/02/28 03:47:01;;;;;;;6.50;4.17;;;;;;;1.60;46.93;101106.38;5042246;28;20068;-71
2022/02/28 03:49:45;;;;;;;9.40;4.60;;;;;;;1.55;46.90;101106.59;5044243;28;20058;-76
2022/02/28 03:52:17;;;;;;;7.30;4.20;;;;;;;1.50;47.17;101107.72;5074201;28;20134;-72
2022/02/28 03:54:58;;;;;;;12.98;4.60;;;;;;;1.47;47.12;101113.94;5026650;28;20035;-72
2022/02/28 03:57:25;;;;;;;9.90;4.30;;;;;;;1.45;47.13;101114.91;5022315;28;20428;-72
2022/02/28 03:59:52;;;;;;;7.40;4.00;;;;;;;1.48;47.37;101122.63;5039360;28;20047;-72
2022/02/28 04:02:18;;;;;;;10.00;4.57;;;;;;;1.47;47.47;101128.78;5056081;28;20047;-73
2022/02/28 04:04:46;;;;;;;7.00;4.60;;;;;;;1.47;47.08;101129.66;5055515;28;20048;-78
2022/02/28 04:07:13;;;;;;;14.80;5.27;;;;;;;1.47;47.21;101129.66;5038682;28;20097;-72
2022/02/28 04:09:39;;;;;;;7.60;4.47;;;;;;;1.41;47.66;101124.66;5055034;28;20158;-72
2022/02/28 04:12:08;;;;;;;12.20;4.87;;;;;;;1.52;47.68;101129.44;5024020;28;20040;-71
2022/02/28 04:14:35;;;;;;;11.03;4.93;;;;;;;1.48;47.86;101131.34;5042901;28;20451;-72
2022/02/28 04:17:06;;;;;;;9.10;4.73;;;;;;;1.45;47.60;101134.09;5081060;28;20039;-71
2022/02/28 04:19:38;;;;;;;10.80;4.70;;;;;;;1.39;47.52;101116.03;5061098;28;20089;-72
2022/02/28 04:22:06;;;;;;;5.90;4.10;;;;;;;1.43;47.41;101125.44;5034605;28;20042;-69
2022/02/28 04:24:34;;;;;;;7.90;4.20;;;;;;;1.43;47.61;101137.69;5064569;28;20052;-72
2022/02/28 04:27:01;;;;;;;10.10;4.63;;;;;;;1.45;47.62;101135.84;5022044;28;20047;-72
2022/02/28 04:29:27;;;;;;;9.63;4.83;;;;;;;1.51;47.28;101146.91;5038462;28;20702;-73
2022/02/28 04:32:04;;;;;;;7.13;4.40;;;;;;;1.70;47.29;101131.28;5024573;28;20044;-73
2022/02/28 04:34:36;;;;;;;13.90;5.00;;;;;;;1.56;47.10;101138.84;5056977;28;20534;-71
2022/02/28 04:37:03;;;;;;;8.70;4.83;;;;;;;1.49;47.33;101112.09;5054965;28;20122;-70
2022/02/28 04:39:29;;;;;;;9.43;4.63;;;;;;;1.59;47.22;101141.34;5038704;28;20063;-69
2022/02/28 04:41:55;;;;;;;7.83;4.07;;;;;;;1.62;47.17;101141.22;5037973;28;20039;-68
2022/02/28 04:44:21;;;;;;;8.17;4.37;;;;;;;1.57;47.20;101124.84;5038553;28;20040;-69
2022/02/28 04:46:47;;;;;;;9.20;4.93;;;;;;;1.60;47.31;101125.56;5021929;28;20048;-66
2022/02/28 04:49:36;;;;;;;12.67;4.07;;;;;;;1.63;46.83;101135.06;5039204;28;20284;-65
2022/02/28 04:52:03;;;;;;;9.47;4.37;;;;;;;1.71;46.93;101141.69;5055769;28;20120;-65
2022/02/28 04:54:28;;;;;;;9.37;4.47;;;;;;;1.71;46.83;101146.06;5038520;28;20067;-67
2022/02/28 04:56:55;;;;;;;11.87;4.93;;;;;;;1.66;47.04;101130.53;5038574;28;20046;-66
2022/02/28 04:59:22;;;;;;;7.20;4.00;;;;;;;1.77;46.71;101143.16;5056542;28;20048;-66
2022/02/28 05:01:52;;;;;;;11.38;4.05;;;;;;;1.77;46.69;101130.06;5064134;28;20411;-69
2022/02/28 05:04:44;;;;;;;7.87;4.20;;;;;;;1.88;46.57;101150.59;5047944;28;20093;-67
2022/02/28 05:07:11;;;;;;;8.47;4.27;;;;;;;1.95;46.67;101147.63;5075895;28;20085;-68
2022/02/28 05:09:37;;;;;;;8.73;3.73;;;;;;;2.01;46.37;101155.22;5055064;28;20070;-67
2022/02/28 05:12:07;;;;;;;10.47;3.87;;;;;;;2.07;46.07;101140.97;5037175;28;20526;-67
2022/02/28 05:14:33;;;;;;;7.43;3.77;;;;;;;1.83;45.84;101105.41;5070324;28;20040;-68
2022/02/28 05:16:59;;;;;;;15.53;4.23;;;;;;;2.07;46.07;101140.97;5053892;28;20040;-68
2022/02/28 05:19:26;;;;;;;5.37;3.80;;;;;;;2.19;46.18;101151.78;5071158;28;20052;-69
2022/02/28 05:21:53;;;;;;;9.87;4.40;;;;;;;2.30;45.34;101146.91;5037423;28;20060;-67
2022/02/28 05:24:19;;;;;;;11.23;4.30;;;;;;;2.34;45.43;101151.06;5037221;28;20508;-74
2022/02/28 05:26:48;;;;;;;11.57;4.07;;;;;;;2.39;45.42;101148.25;5055189;28;20043;-68
2022/02/28 05:29:14;;;;;;;14.50;4.37;;;;;;;2.59;44.85;101158.66;5056426;28;20866;-67
2022/02/28 05:31:40;;;;;;;7.97;3.77;;;;;;;2.60;44.92;101166.47;5090588;28;20075;-66
2022/02/28 05:34:27;;;;;;;12.40;4.43;;;;;;;2.62;44.66;101158.53;5021303;28;20047;-68
2022/02/28 05:36:53;;;;;;;9.43;4.17;;;;;;;2.63;44.39;101163.69;5028005;28;20085;-67
2022/02/28 05:39:54;;;;;;;;;;;;;;;3.17;43.71;101161.09;5061437;28;20071;-69
2022/02/28 05:42:24;;;;;;;7.27;3.63;;;;;;;2.81;43.93;101162.00;5046904;28;20832;-68
2022/02/28 05:44:52;;;;;;;6.97;3.50;;;;;;;2.87;43.81;101165.19;5037361;28;20501;-68
2022/02/28 05:47:18;;;;;;;5.77;3.60;;;;;;;2.90;43.71;101157.19;5072181;28;20051;-67
2022/02/28 05:49:48;;;;;;;7.97;4.10;;;;;;;2.90;43.58;101158.94;5072964;28;20044;-71
2022/02/28 05:52:14;;;;;;;7.30;3.87;;;;;;;3.05;43.40;101174.81;5056081;28;20043;-66
2022/02/28 05:54:39;;;;;;;8.90;3.70;;;;;;;3.09;43.30;101160.59;5038857;28;20036;-66
2022/02/28 05:57:05;;;;;;;9.40;3.70;;;;;;;3.23;43.10;101166.03;5038822;28;20040;-66
2022/02/28 05:59:32;;;;;;;6.03;3.50;;;;;;;3.33;42.66;101167.31;5038834;28;20112;-67
2022/02/28 06:01:58;;;;;;;11.40;3.83;;;;;;;3.38;42.39;101160.03;5072063;28;20078;-66
2022/02/28 06:04:24;;;;;;;12.77;3.83;;;;;;;3.53;42.44;101168.94;5038679;28;20126;-67
2022/02/28 06:06:50;;;;;;;13.17;4.23;;;;;;;3.54;42.21;101162.75;5071811;28;20488;-66
2022/02/28 06:09:16;;;;;;;11.93;4.67;;;;;;;3.66;42.09;101171.81;5072080;28;20472;-65
2022/02/28 06:11:42;;;;;;;9.30;4.03;;;;;;;3.72;41.62;101172.31;5037967;28;20087;-67
2022/02/28 06:14:08;;;;;;;6.30;3.57;;;;;;;3.89;41.23;101163.59;5038585;28;20036;-66
2022/02/28 06:16:34;;;;;;;13.53;4.03;;;;;;;3.92;41.39;101171.31;5038024;28;20530;-65
2022/02/28 06:18:59;;;;;;;13.47;5.10;;;;;;;4.07;41.03;101170.53;5071851;28;20056;-66
2022/02/28 06:21:28;;;;;;;12.07;4.60;;;;;;;4.37;40.65;101168.91;5041147;28;20055;-65
2022/02/28 06:23:54;;;;;;;9.70;4.50;;;;;;;4.27;40.29;101171.19;5076317;28;20043;-65
2022/02/28 06:26:20;;;;;;;6.93;3.47;;;;;;;4.41;40.13;101168.66;5042514;28;20093;-70
2022/02/28 06:28:45;;;;;;;5.50;3.60;;;;;;;4.55;39.80;101163.50;5042397;28;20056;-67
2022/02/28 06:31:12;;;;;;;9.63;4.13;;;;;;;4.64;39.50;101167.44;5059150;28;20054;-66
2022/02/28 06:33:37;;;;;;;9.93;3.60;;;;;;;4.78;39.41;101170.16;5076073;28;20137;-66
2022/02/28 06:36:04;;;;;;;10.07;3.93;;;;;;;4.94;38.97;101171.00;5043429;28;20044;-66
2022/02/28 06:38:29;;;;;;;11.23;4.07;;;;;;;5.04;38.79;101182.72;5094207;28;20044;-66
2022/02/28 06:40:55;;;;;;;6.27;3.80;;;;;;;5.15;38.25;101181.19;5060149;28;20449;-66
2022/02/28 06:43:22;;;;;;;8.43;3.87;;;;;;;5.18;38.04;101148.56;5059204;28;20048;-68
2022/02/28 06:45:48;;;;;;;7.30;3.83;;;;;;;5.60;37.79;101190.88;5075960;28;20052;-67
2022/02/28 06:48:15;;;;;;;10.20;4.30;;;;;;;5.79;37.16;101180.09;5056747;28;20091;-67
2022/02/28 06:50:42;;;;;;;13.10;3.60;;;;;;;5.82;37.04;101179.97;5056592;28;20058;-67
2022/02/28 06:53:08;;;;;;;8.43;3.83;;;;;;;5.95;36.36;101183.59;5058033;28;20047;-68
2022/02/28 06:55:33;;;;;;;13.17;6.30;;;;;;;6.09;36.53;101192.34;5038551;28;20040;-67
2022/02/28 06:57:59;;;;;;;11.73;3.90;;;;;;;6.23;36.16;101180.97;5058726;28;20696;-67
2022/02/28 07:00:25;;;;;;;8.77;4.03;;;;;;;6.28;35.66;101192.09;5058607;28;20424;-67
2022/02/28 07:03:07;;;;;;;14.40;5.63;;;;;;;6.52;35.64;101180.03;5046239;28;20032;-67
2022/02/28 07:05:34;;;;;;;10.97;4.67;;;;;;;6.85;35.06;101181.44;5042194;28;20036;-67
2022/02/28 07:08:00;;;;;;;14.10;4.67;;;;;;;6.90;34.83;101191.69;5056813;28;20527;-67
2022/02/28 07:10:26;;;;;;;10.57;4.53;;;;;;;7.11;34.24;101186.81;5038483;28;20041;-67
2022/02/28 07:12:52;;;;;;;13.33;4.00;;;;;;;7.31;33.95;101187.25;5054471;28;20059;-67
2022/02/28 07:15:18;;;;;;;10.30;3.77;;;;;;;7.57;33.35;101183.72;5055699;28;20098;-67
2022/02/28 07:17:43;;;;;;;7.30;3.47;;;;;;;7.74;32.94;101178.19;5055293;28;20443;-67
2022/02/28 07:20:10;;;;;;;22.90;7.70;;;;;;;8.26;32.46;101183.44;5071495;28;20036;-67
2022/02/28 07:22:36;;;;;;;19.77;5.50;;;;;;;8.54;31.85;101183.22;5071875;28;20045;-67
2022/02/28 07:25:03;;;;;;;8.50;3.30;;;;;;;9.51;30.49;101188.44;5054894;28;20044;-67
2022/02/28 07:27:29;;;;;;;7.78;3.35;;;;;;;11.71;27.75;101178.88;5038488;28;20041;-67
2022/02/28 07:29:55;;;;;;;6.80;3.22;;;;;;;14.91;23.30;101184.22;5038167;28;20048;-68
2022/02/28 07:32:21;;;;;;;11.00;3.40;;;;;;;17.86;19.94;101177.56;5021008;28;20040;-68
2022/02/28 07:34:47;;;;;;;13.25;3.83;;;;;;;20.10;17.75;101181.19;5038530;28;20500;-69
2022/02/28 07:37:22;;;;;;;13.90;3.72;;;;;;;22.20;15.11;101173.94;5038496;28;20089;-69
2022/02/28 07:39:48;;;;;;;12.38;4.28;;;;;;;23.31;14.04;101169.25;5038033;28;20393;-69
2022/02/28 07:42:14;;;;;;;14.05;3.90;;;;;;;24.45;12.96;101176.09;5038315;28;20077;-69
2022/02/28 07:44:40;;;;;;;17.30;3.67;;;;;;;25.23;11.67;101175.06;5038028;28;20106;-68
2022/02/28 07:47:07;;;;;;;10.60;3.42;;;;;;;25.21;12.28;101169.00;5038370;28;20131;-69
2022/02/28 07:49:35;;;;;;;9.13;3.28;;;;;;;24.55;12.33;101170.22;5054983;28;20045;-69
2022/02/28 07:52:02;;;;;;;13.90;3.63;;;;;;;24.13;12.12;101160.66;5054862;28;20045;-69
2022/02/28 07:54:28;;;;;;;9.05;3.53;;;;;;;24.99;11.85;101166.81;5066732;28;20033;-69
2022/02/28 07:56:54;;;;;;;9.35;3.38;;;;;;;26.54;10.73;101163.28;5018233;28;20136;-70
2022/02/28 07:59:20;;;;;;;12.65;4.05;;;;;;;27.56;9.87;101162.28;5018331;28;20056;-69
2022/02/28 08:01:45;;;;;;;14.30;3.58;;;;;;;28.58;9.16;101161.91;5051679;28;20417;-69
2022/02/28 08:04:11;;;;;;;8.50;3.40;;;;;;;28.99;8.46;101167.22;5017747;28;20519;-69
2022/02/28 08:06:37;;;;;;;11.05;3.45;;;;;;;29.29;8.32;101170.59;5018555;28;20045;-69
2022/02/28 08:09:03;;;;;;;10.05;3.70;;;;;;;29.32;8.24;101169.28;5048120;28;20597;-68
2022/02/28 08:11:29;;;;;;;10.93;3.47;;;;;;;29.77;8.09;101153.72;5053966;28;20048;-68
2022/02/28 08:13:55;;;;;;;13.40;3.65;;;;;;;30.91;7.62;101153.94;5037576;28;20044;-68
2022/02/28 08:16:22;;;;;;;9.52;3.30;;;;;;;31.80;6.93;101148.94;5021293;28;20143;-68
2022/02/28 08:18:48;;;;;;;13.93;4.05;;;;;;;31.73;6.77;101148.31;5053935;28;20135;-68
2022/02/28 08:21:13;;;;;;;8.23;4.10;;;;;;;29.80;7.33;101146.94;5020732;28;20048;-68
2022/02/28 08:23:39;;;;;;;8.13;3.58;;;;;;;27.46;8.60;101139.34;5020623;28;20106;-68
2022/02/28 08:26:05;;;;;;;18.33;4.45;;;;;;;24.62;10.49;101120.25;5021048;28;20048;-68
2022/02/28 08:28:31;;;;;;;13.32;5.03;;;;;;;22.04;11.91;101137.19;5021004;28;20452;-67
2022/02/28 08:30:57;;;;;;;19.52;4.78;;;;;;;20.05;13.68;101134.19;5053898;28;20052;-66
2022/02/28 08:33:22;;;;;;;10.90;3.80;;;;;;;18.51;15.04;101132.63;5020976;28;20139;-66
2022/02/28 08:35:48;;;;;;;11.68;3.78;;;;;;;17.15;16.21;101124.50;5020655;28;20139;-65
2022/02/28 08:38:17;;;;;;;10.98;4.03;;;;;;;16.06;17.42;101132.50;5054339;28;20063;-65
2022/02/28 08:40:47;;;;;;;11.13;3.90;;;;;;;15.53;18.47;101124.53;5036587;28;20054;-66
2022/02/28 08:43:13;;;;;;;13.38;3.15;;;;;;;14.69;19.14;101133.81;5020001;28;20047;-66
2022/02/28 08:45:39;;;;;;;10.40;2.83;;;;;;;14.14;19.63;101132.00;5020733;28;20072;-66
2022/02/28 08:48:07;;;;;;;7.22;3.20;;;;;;;13.49;20.43;101124.78;5036237;28;20141;-66
2022/02/28 08:50:33;;;;;;;8.32;3.40;;;;;;;12.96;21.52;101117.25;5053096;28;20048;-66
2022/02/28 08:52:59;;;;;;;13.63;3.38;;;;;;;12.56;22.03;101129.75;5020155;28;20094;-66
2022/02/28 08:55:25;;;;;;;12.35;2.97;;;;;;;12.33;22.44;101137.06;5037100;28;20528;-66
2022/02/28 08:57:51;;;;;;;11.02;3.30;;;;;;;12.10;22.95;101127.56;5053712;28;20098;-66
2022/02/28 09:00:17;;;;;;;5.03;2.90;;;;;;;12.03;22.89;101122.88;5052540;28;20040;-65
2022/02/28 09:02:43;;;;;;;12.07;3.20;;;;;;;11.90;23.22;101099.13;5052676;28;20423;-68
2022/02/28 09:05:10;;;;;;;7.32;3.15;;;;;;;12.08;23.24;101129.53;5036925;28;20048;-68
2022/02/28 09:07:36;;;;;;;6.68;3.20;;;;;;;12.00;23.30;101133.81;5054744;28;20040;-68
2022/02/28 09:10:03;;;;;;;4.95;2.63;;;;;;;12.04;23.46;101133.41;5073218;28;20127;-68
2022/02/28 09:12:29;;;;;;;5.43;2.38;;;;;;;11.97;23.17;101126.94;5054818;28;20050;-69
2022/02/28 09:14:55;;;;;;;5.50;2.60;;;;;;;11.91;23.45;101130.13;5040198;28;20063;-68
2022/02/28 09:17:21;;;;;;;4.15;2.40;;;;;;;11.93;23.52;101123.69;5023111;28;20499;-66
2022/02/28 09:19:54;;;;;;;4.80;2.15;;;;;;;12.09;23.69;101117.88;5037577;28;20050;-68
2022/02/28 09:22:19;;;;;;;5.03;2.40;;;;;;;11.84;23.51;101126.25;5042215;28;20043;-66
2022/02/28 09:24:46;;;;;;;5.25;2.35;;;;;;;11.92;23.95;101139.78;5058672;28;20039;-66
2022/02/28 09:27:11;;;;;;;7.07;2.47;;;;;;;11.96;23.72;101127.06;5042628;28;20120;-67
2022/02/28 09:29:37;;;;;;;10.95;2.50;;;;;;;12.07;23.67;101125.16;5057811;28;20532;-67
2022/02/28 09:32:04;;;;;;;7.40;2.85;;;;;;;12.06;23.37;101131.47;5042392;28;20039;-66
2022/02/28 09:34:30;;;;;;;10.43;4.38;;;;;;;11.98;23.94;101125.13;5075603;28;20039;-66
2022/02/28 09:36:56;;;;;;;14.00;3.95;;;;;;;11.68;24.35;101124.09;5059382;28;20048;-66
2022/02/28 09:39:22;;;;;;;7.90;3.00;;;;;;;11.45;24.12;101121.63;5074594;28;20050;-66
2022/02/28 09:42:17;;;;;;;9.90;3.85;;;;;;;11.33;24.63;101131.44;5070833;28;20532;-66
2022/02/28 09:45:03;;;;;;;5.38;2.50;;;;;;;11.30;24.61;101114.91;5063702;28;20392;-66
2022/02/28 09:47:32;;;;;;;8.95;3.10;;;;;;;11.32;24.56;101126.25;5076166;28;20083;-66
2022/02/28 09:50:18;;;;;;;10.05;3.53;;;;;;;11.15;24.82;101129.44;5064620;28;20047;-65
2022/02/28 09:53:07;;;;;;;6.20;2.90;;;;;;;11.02;25.04;101124.31;5038045;28;20043;-65
2022/02/28 09:56:02;;;;;;;7.30;2.90;;;;;;;10.75;25.30;101115.06;5052800;28;20138;-65
2022/02/28 09:58:37;;;;;;;5.75;2.75;;;;;;;10.81;25.18;101117.22;5060834;28;20050;-65
2022/02/28 10:01:03;;;;;;;6.30;3.20;;;;;;;11.00;25.36;101120.91;5041840;28;20043;-65
2022/02/28 10:03:30;;;;;;;9.65;3.35;;;;;;;11.13;25.28;101124.25;5042597;28;20071;-66
2022/02/28 10:06:02;;;;;;;6.85;2.50;;;;;;;11.39;24.84;101116.81;5075586;28;20488;-66
2022/02/28 10:08:41;;;;;;;5.03;2.58;;;;;;;11.75;24.86;101117.25;5092248;28;20055;-66
2022/02/28 10:11:27;;;;;;;5.13;2.60;;;;;;;11.78;24.42;101093.03;5091351;28;20055;-65
2022/02/28 10:13:55;;;;;;;7.85;2.70;;;;;;;11.76;24.60;101121.59;5091377;28;20035;-66
2022/02/28 10:16:34;;;;;;;8.80;2.55;;;;;;;11.89;24.37;101124.06;5058440;28;20043;-66
2022/02/28 10:19:03;;;;;;;7.55;2.60;;;;;;;11.53;24.66;101108.53;5057823;28;20043;-67
2022/02/28 10:21:45;;;;;;;4.38;2.42;;;;;;;11.57;24.91;101112.59;5075039;28;20561;-70
2022/02/28 10:24:20;;;;;;;7.93;2.95;;;;;;;11.52;25.04;101113.00;5091993;28;20143;-67
2022/02/28 10:27:18;;;;;;;4.43;2.80;;;;;;;11.31;24.96;101109.47;5034202;28;20039;-67
2022/02/28 10:30:03;;;;;;;5.90;3.40;;;;;;;11.50;24.87;101111.44;5077287;28;20096;-67
2022/02/28 10:32:51;;;;;;;9.30;2.80;;;;;;;11.70;24.94;101102.66;5063654;28;20058;-67
2022/02/28 10:38:48;;;;;;;7.88;3.20;;;;;;;11.90;24.98;101096.47;5109899;28;20047;-66
2022/02/28 10:41:22;;;;;;;5.55;2.78;;;;;;;12.11;24.59;101099.97;5074469;28;20092;-68
2022/02/28 10:43:51;;;;;;;7.57;3.38;;;;;;;12.18;24.32;101102.94;5057897;28;20062;-66
2022/02/28 10:46:26;;;;;;;6.78;3.30;;;;;;;12.55;23.97;101091.59;5075369;28;20039;-67
2022/02/28 10:48:58;;;;;;;10.07;3.30;;;;;;;12.90;23.61;101097.28;5074944;28;20036;-66
2022/02/28 10:51:24;;;;;;;5.05;2.90;;;;;;;13.02;23.28;101092.72;5074392;28;20147;-69
2022/02/28 10:54:20;;;;;;;5.93;3.25;;;;;;;13.68;22.54;101091.03;5074454;28;20048;-67
2022/02/28 10:56:49;;;;;;;7.55;2.90;;;;;;;13.81;22.26;101089.75;5075067;28;20044;-69
2022/02/28 10:59:16;;;;;;;6.32;2.75;;;;;;;13.88;21.90;101095.38;5074947;28;20051;-66
2022/02/28 11:01:45;;;;;;;5.43;2.90;;;;;;;13.69;22.23;101095.38;5090932;28;20129;-66
2022/02/28 11:04:11;;;;;;;6.85;3.05;;;;;;;13.74;22.30;101103.81;5058119;28;20044;-67
2022/02/28 11:06:37;;;;;;;4.38;2.50;;;;;;;13.77;22.03;101096.38;5059246;28;20073;-67
2022/02/28 11:09:04;;;;;;;8.25;3.80;;;;;;;13.68;22.26;101091.03;5095451;28;20064;-67
2022/02/28 11:11:31;;;;;;;6.60;3.42;;;;;;;13.55;22.36;101099.34;5077384;28;20059;-66
2022/02/28 11:13:57;;;;;;;4.95;2.88;;;;;;;13.27;22.78;101092.16;5061564;28;20035;-66
2022/02/28 11:16:23;;;;;;;7.18;3.20;;;;;;;13.11;22.98;101081.22;5044554;28;20134;-66
2022/02/28 11:18:48;;;;;;;6.03;3.22;;;;;;;13.10;22.81;101091.03;5044567;28;21058;-68
2022/02/28 11:21:15;;;;;;;8.05;3.45;;;;;;;13.10;22.90;101095.56;5058212;28;20044;-67
2022/02/28 11:23:46;;;;;;;14.68;3.05;;;;;;;13.24;23.09;101087.97;5112715;28;20048;-67
2022/02/28 11:26:15;;;;;;;9.77;2.95;;;;;;;13.09;23.08;101062.69;5092225;28;20225;-66
2022/02/28 11:28:41;;;;;;;7.57;3.13;;;;;;;13.17;22.67;101078.84;5112686;28;20044;-68
2022/02/28 11:31:12;;;;;;;12.23;4.05;;;;;;;13.65;22.54;101081.50;5059622;28;20162;-67
2022/02/28 11:33:50;;;;;;;5.43;3.05;;;;;;;13.80;22.26;101079.22;5074728;28;20142;-67
2022/02/28 11:36:15;;;;;;;10.68;3.35;;;;;;;13.49;22.35;101074.06;5074983;28;20043;-67
2022/02/28 11:38:42;;;;;;;7.88;3.28;;;;;;;13.61;21.92;101071.25;5073193;28;20400;-67